createdAt,value
2023-04-17T00:00:44.218Z,93985.94
2023-04-17T00:01:41.015Z,93880.13
2023-04-17T00:02:40.068Z,93862.19
2023-04-17T00:03:37.971Z,93990.47
2023-04-17T00:04:34.930Z,93978.16
2023-04-17T00:05:33.830Z,93974.69
2023-04-17T00:06:33.860Z,93992.41
2023-04-17T00:07:30.595Z,93992.13
2023-04-17T00:08:27.296Z,93973.88
2023-04-17T00:09:24.053Z,93982.97
2023-04-17T00:10:20.760Z,93986.28
2023-04-17T00:11:18.766Z,93917.47
2023-04-17T00:12:16.211Z,93989.19
2023-04-17T00:13:12.892Z,93946.28
2023-04-17T00:14:09.654Z,93978.69
2023-04-17T00:15:07.361Z,93981.97
2023-04-17T00:16:04.401Z,93926.06
2023-04-17T00:17:01.136Z,93980.72
2023-04-17T00:17:57.911Z,93981.41
2023-04-17T00:18:55.216Z,93921.19
2023-04-17T00:19:52.069Z,93976.44
2023-04-17T00:20:49.844Z,93949.50
2023-04-17T00:21:46.656Z,93940.22
2023-04-17T00:22:43.856Z,93969.56
2023-04-17T00:23:40.791Z,93980.56
2023-04-17T00:24:37.554Z,93934.34
2023-04-17T00:25:34.244Z,93978.63
2023-04-17T00:26:32.462Z,93959.19
2023-04-17T00:27:29.310Z,93953.31
2023-04-17T00:28:26.086Z,93985.03
2023-04-17T00:29:22.870Z,93979.16
2023-04-17T00:30:19.765Z,93880.53
2023-04-17T00:31:16.903Z,93948.38
2023-04-17T00:32:13.779Z,93832.94
2023-04-17T00:33:10.564Z,93973.47
2023-04-17T00:34:07.275Z,93936.22
2023-04-17T00:35:04.373Z,93896.28
2023-04-17T00:36:01.122Z,93986.97
2023-04-17T00:36:59.263Z,93986.91
2023-04-17T00:37:56.060Z,93983.13
2023-04-17T00:38:52.902Z,93985.72
2023-04-17T00:39:49.631Z,93939.41
2023-04-17T00:40:46.600Z,93974.94
2023-04-17T00:41:43.353Z,93979.44
2023-04-17T00:42:40.069Z,93981.47
2023-04-17T00:43:37.048Z,93887.59
2023-04-17T00:44:33.887Z,93931.47
2023-04-17T00:45:31.741Z,93980.63
2023-04-17T00:46:28.531Z,93979.84
2023-04-17T00:47:26.467Z,93976.88
2023-04-17T00:48:24.291Z,93983.22
2023-04-17T00:49:21.917Z,93936.69
2023-04-17T00:50:18.965Z,93973.47
2023-04-17T00:51:16.087Z,93976.34
2023-04-17T00:52:23.810Z,93899.50
2023-04-17T00:53:20.819Z,93974.84
2023-04-17T00:54:19.229Z,93968.59
2023-04-17T00:55:16.211Z,93976.34
2023-04-17T00:56:13.744Z,93980.91
2023-04-17T00:57:10.761Z,93975.75
2023-04-17T00:58:07.932Z,93974.81
2023-04-17T00:59:11.827Z,93956.81
2023-04-17T01:00:10.284Z,93944.13
2023-04-17T01:01:07.226Z,93971.91
2023-04-17T01:02:04.679Z,93884.31
2023-04-17T01:03:02.086Z,93972.50
2023-04-17T01:04:01.906Z,93968.50
2023-04-17T01:04:58.739Z,93912.47
2023-04-17T01:05:56.325Z,93975.06
2023-04-17T01:06:53.756Z,93971.03
2023-04-17T01:07:51.213Z,93970.41
2023-04-17T01:08:48.283Z,93933.56
2023-04-17T01:09:45.299Z,93914.19
2023-04-17T01:10:42.062Z,93971.94
2023-04-17T01:11:39.545Z,93960.53
2023-04-17T01:12:36.689Z,93974.84
2023-04-17T01:13:33.438Z,93942.94
2023-04-17T01:14:30.407Z,93967.78
2023-04-17T01:15:27.134Z,93978.56
2023-04-17T01:16:23.938Z,93970.97
2023-04-17T01:17:22.100Z,93969.19
2023-04-17T01:18:18.957Z,93969.63
2023-04-17T01:19:17.177Z,93942.41
2023-04-17T01:20:13.949Z,93971.09
2023-04-17T01:21:11.030Z,93972.00
2023-04-17T01:22:08.478Z,93978.09
2023-04-17T01:23:05.197Z,93971.22
2023-04-17T01:24:05.403Z,93958.91
2023-04-17T01:25:02.909Z,93976.34
2023-04-17T01:25:59.670Z,93970.56
2023-04-17T01:26:56.460Z,93974.38
2023-04-17T01:27:53.743Z,93969.69
2023-04-17T01:28:58.887Z,93974.78
2023-04-17T01:29:55.649Z,93956.34
2023-04-17T01:30:52.459Z,93970.19
2023-04-17T01:31:49.272Z,93970.69
2023-04-17T01:32:46.118Z,93968.66
2023-04-17T01:33:42.924Z,93926.16
2023-04-17T01:34:39.662Z,93963.22
2023-04-17T01:35:36.373Z,93966.00
2023-04-17T01:36:33.103Z,93964.38
2023-04-17T01:37:30.084Z,93973.47
2023-04-17T01:38:26.793Z,93972.50
2023-04-17T01:39:23.621Z,93971.69
2023-04-17T01:40:20.539Z,93925.19
2023-04-17T01:41:17.276Z,93964.47
2023-04-17T01:42:14.082Z,93970.00
2023-04-17T01:43:10.780Z,93920.44
2023-04-17T01:44:07.505Z,93963.91
2023-04-17T01:45:05.676Z,93954.84
2023-04-17T01:46:02.546Z,93902.34
2023-04-17T01:46:59.433Z,93958.63
2023-04-17T01:47:56.249Z,93908.75
2023-04-17T01:48:53.132Z,93941.84
2023-04-17T01:49:49.926Z,93923.41
2023-04-17T01:50:46.793Z,93943.28
2023-04-17T01:51:43.602Z,93922.94
2023-04-17T01:52:40.564Z,93939.63
2023-04-17T01:53:40.354Z,93950.50
2023-04-17T01:54:37.054Z,93939.41
2023-04-17T01:55:33.788Z,93937.91
2023-04-17T01:56:30.920Z,93897.66
2023-04-17T01:57:28.156Z,93801.38
2023-04-17T01:58:24.933Z,93934.63
2023-04-17T01:59:21.640Z,93928.31
2023-04-17T02:00:18.859Z,93932.59
2023-04-17T02:01:15.814Z,93941.03
2023-04-17T02:02:31.250Z,93877.84
2023-04-17T02:03:28.392Z,93948.94
2023-04-17T02:04:25.359Z,93933.47
2023-04-17T02:05:22.195Z,93914.59
2023-04-17T02:06:18.950Z,93874.13
2023-04-17T02:07:16.711Z,93951.16
2023-04-17T02:08:14.343Z,93903.66
2023-04-17T02:09:11.835Z,93925.78
2023-04-17T02:10:09.289Z,93951.06
2023-04-17T02:11:06.083Z,93942.75
2023-04-17T02:12:02.826Z,93923.16
2023-04-17T02:12:59.605Z,93934.94
2023-04-17T02:13:56.389Z,93947.09
2023-04-17T02:14:53.130Z,93920.72
2023-04-17T02:15:49.889Z,93917.38
2023-04-17T02:16:46.774Z,93903.00
2023-04-17T02:17:43.524Z,93822.16
2023-04-17T02:18:41.418Z,93882.59
2023-04-17T02:19:38.231Z,93948.31
2023-04-17T02:20:36.570Z,93937.94
2023-04-17T02:21:33.297Z,93943.06
2023-04-17T02:22:30.016Z,93953.69
2023-04-17T02:23:26.751Z,93901.47
2023-04-17T02:24:23.506Z,93949.06
2023-04-17T02:25:20.785Z,93941.72
2023-04-17T02:26:17.604Z,93899.56
2023-04-17T02:27:14.316Z,93874.00
2023-04-17T02:28:11.438Z,93932.22
2023-04-17T02:29:08.221Z,93918.63
2023-04-17T02:30:05.399Z,93933.09
2023-04-17T02:31:02.363Z,93947.06
2023-04-17T02:31:59.139Z,93891.97
2023-04-17T02:32:56.633Z,93941.03
2023-04-17T02:33:53.420Z,93949.56
2023-04-17T02:34:50.299Z,93867.97
2023-04-17T02:35:47.140Z,93942.84
2023-04-17T02:36:43.903Z,93946.38
2023-04-17T02:37:40.758Z,93930.38
2023-04-17T02:38:37.898Z,93945.34
2023-04-17T02:39:35.443Z,93891.84
2023-04-17T02:40:32.178Z,93907.97
2023-04-17T02:41:28.878Z,93919.28
2023-04-17T02:42:25.713Z,93927.22
2023-04-17T02:43:22.436Z,93952.44
2023-04-17T02:44:19.132Z,93926.59
2023-04-17T02:45:16.058Z,93948.72
2023-04-17T02:46:12.797Z,93945.16
2023-04-17T02:47:09.527Z,93949.19
2023-04-17T02:48:06.608Z,93948.22
2023-04-17T02:49:03.500Z,93951.22
2023-04-17T02:50:00.447Z,93927.03
2023-04-17T02:50:57.252Z,93949.06
2023-04-17T02:51:53.973Z,93931.06
2023-04-17T02:52:50.700Z,93955.59
2023-04-17T02:53:49.147Z,93913.69
2023-04-17T02:54:46.040Z,93942.03
2023-04-17T02:55:42.771Z,93951.06
2023-04-17T02:56:39.793Z,93953.56
2023-04-17T02:57:36.511Z,93936.03
2023-04-17T02:58:33.254Z,93955.19
2023-04-17T02:59:30.029Z,93957.00
2023-04-17T03:00:28.032Z,93959.22
2023-04-17T03:01:24.825Z,93951.94
2023-04-17T03:02:22.481Z,93873.59
2023-04-17T03:03:19.643Z,93906.75
2023-04-17T03:04:16.641Z,93948.53
2023-04-17T03:05:15.107Z,93954.66
2023-04-17T03:06:11.863Z,93905.09
2023-04-17T03:07:10.437Z,93956.06
2023-04-17T03:08:07.336Z,93875.44
2023-04-17T03:09:04.485Z,93937.25
2023-04-17T03:10:01.273Z,93955.47
2023-04-17T03:10:58.046Z,93922.78
2023-04-17T03:11:54.876Z,93934.06
2023-04-17T03:12:51.622Z,93965.09
2023-04-17T03:13:48.933Z,93968.28
2023-04-17T03:14:45.761Z,93968.56
2023-04-17T03:15:42.591Z,93964.72
2023-04-17T03:16:39.293Z,93962.50
2023-04-17T03:17:36.185Z,93922.56
2023-04-17T03:18:35.001Z,93965.47
2023-04-17T03:19:31.730Z,93966.16
2023-04-17T03:20:28.455Z,93959.63
2023-04-17T03:21:26.674Z,93955.16
2023-04-17T03:22:23.343Z,93944.97
2023-04-17T03:23:20.090Z,93924.00
2023-04-17T03:24:16.847Z,93967.03
2023-04-17T03:25:32.405Z,93961.72
2023-04-17T03:26:29.176Z,93909.53
2023-04-17T03:27:26.432Z,93965.56
2023-04-17T03:28:23.983Z,93957.09
2023-04-17T03:29:20.917Z,93958.69
2023-04-17T03:30:17.678Z,93959.06
2023-04-17T03:31:14.565Z,93931.75
2023-04-17T03:32:11.440Z,93962.75
2023-04-17T03:33:08.248Z,93958.66
2023-04-17T03:34:04.939Z,93958.56
2023-04-17T03:35:01.825Z,93957.03
2023-04-17T03:35:58.636Z,93960.41
2023-04-17T03:36:55.837Z,93949.19
2023-04-17T03:37:52.771Z,93919.78
2023-04-17T03:38:49.493Z,93956.25
2023-04-17T03:39:46.254Z,93934.81
2023-04-17T03:40:43.724Z,93959.47
2023-04-17T03:41:40.854Z,93952.81
2023-04-17T03:42:37.585Z,93898.03
2023-04-17T03:43:34.307Z,93953.63
2023-04-17T03:44:31.237Z,93959.25
2023-04-17T03:45:28.059Z,93898.06
2023-04-17T03:46:24.974Z,93905.56
2023-04-17T03:47:21.866Z,93916.41
2023-04-17T03:48:18.990Z,93952.72
2023-04-17T03:49:15.908Z,93956.00
2023-04-17T03:50:12.719Z,93904.81
2023-04-17T03:51:09.657Z,93918.94
2023-04-17T03:52:06.495Z,93948.91
2023-04-17T03:53:03.228Z,93892.78
2023-04-17T03:54:00.005Z,93947.09
2023-04-17T03:54:57.004Z,93919.03
2023-04-17T03:55:53.811Z,93959.63
2023-04-17T03:56:50.650Z,93937.59
2023-04-17T03:57:48.577Z,93944.97
2023-04-17T03:58:45.426Z,93939.16
2023-04-17T03:59:42.147Z,93959.47
2023-04-17T04:00:39.056Z,93953.19
2023-04-17T04:01:38.683Z,93918.50
2023-04-17T04:02:35.489Z,93945.78
2023-04-17T04:03:32.724Z,93821.03
2023-04-17T04:04:29.848Z,93932.72
2023-04-17T04:05:26.722Z,93961.03
2023-04-17T04:06:23.494Z,93866.59
2023-04-17T04:07:21.441Z,93951.72
2023-04-17T04:08:18.271Z,93953.19
2023-04-17T04:09:15.148Z,93815.38
2023-04-17T04:10:11.918Z,93928.00
2023-04-17T04:11:08.686Z,93959.47
2023-04-17T04:12:05.523Z,93958.44
2023-04-17T04:13:02.280Z,93952.81
2023-04-17T04:13:59.052Z,93962.38
2023-04-17T04:14:55.827Z,93946.81
2023-04-17T04:15:52.724Z,93960.34
2023-04-17T04:16:49.700Z,93958.63
2023-04-17T04:17:46.441Z,93875.84
2023-04-17T04:18:43.398Z,93884.50
2023-04-17T04:19:40.316Z,93961.28
2023-04-17T04:20:37.110Z,93937.44
2023-04-17T04:21:34.514Z,93952.34
2023-04-17T04:22:31.269Z,93873.13
2023-04-17T04:23:28.218Z,93967.56
2023-04-17T04:24:25.630Z,93925.59
2023-04-17T04:25:22.882Z,93962.44
2023-04-17T04:26:21.778Z,93951.72
2023-04-17T04:27:18.718Z,93964.22
2023-04-17T04:28:15.529Z,93922.38
2023-04-17T04:29:13.840Z,93969.38
2023-04-17T04:30:12.500Z,93970.28
2023-04-17T04:31:09.818Z,93961.59
2023-04-17T04:32:09.861Z,93944.06
2023-04-17T04:33:08.447Z,93963.66
2023-04-17T04:34:06.088Z,93954.56
2023-04-17T04:35:03.187Z,93958.41
2023-04-17T04:36:01.371Z,93825.69
2023-04-17T04:36:58.451Z,93938.72
2023-04-17T04:38:02.063Z,93950.97
2023-04-17T04:38:59.908Z,93963.38
2023-04-17T04:40:10.687Z,93969.47
2023-04-17T04:41:10.471Z,93938.50
2023-04-17T04:42:09.974Z,93952.16
2023-04-17T04:43:07.020Z,93971.28
2023-04-17T04:44:03.790Z,93961.03
2023-04-17T04:45:00.749Z,93965.69
2023-04-17T04:45:57.552Z,93862.78
2023-04-17T04:46:55.513Z,93919.88
2023-04-17T04:47:52.697Z,93883.50
2023-04-17T04:48:49.586Z,93968.19
2023-04-17T04:49:46.293Z,93933.72
2023-04-17T04:50:43.032Z,93964.44
2023-04-17T04:51:40.077Z,93903.91
2023-04-17T04:52:36.812Z,93967.75
2023-04-17T04:53:33.681Z,93953.66
2023-04-17T04:54:30.538Z,93935.13
2023-04-17T04:55:27.345Z,93917.41
2023-04-17T04:56:24.093Z,93941.69
2023-04-17T04:57:20.871Z,93941.69
2023-04-17T04:58:17.574Z,93971.97
2023-04-17T04:59:14.292Z,93975.72
2023-04-17T05:00:13.327Z,93979.44
2023-04-17T05:01:10.229Z,93978.75
2023-04-17T05:02:07.306Z,93940.84
2023-04-17T05:03:04.406Z,93957.06
2023-04-17T05:04:01.669Z,93973.28
2023-04-17T05:04:58.648Z,93977.09
2023-04-17T05:05:55.515Z,93943.31
2023-04-17T05:06:52.483Z,93922.84
2023-04-17T05:07:49.247Z,93943.34
2023-04-17T05:08:46.032Z,93962.41
2023-04-17T05:09:42.998Z,93946.66
2023-04-17T05:10:39.811Z,93947.41
2023-04-17T05:11:36.633Z,93970.78
2023-04-17T05:12:35.073Z,93968.16
2023-04-17T05:13:31.924Z,93942.34
2023-04-17T05:14:28.663Z,93971.84
2023-04-17T05:15:25.728Z,93971.91
2023-04-17T05:16:22.506Z,93950.38
2023-04-17T05:17:19.313Z,93965.81
2023-04-17T05:18:16.063Z,93955.59
2023-04-17T05:19:13.004Z,93914.44
2023-04-17T05:20:10.582Z,93959.63
2023-04-17T05:21:07.269Z,93942.88
2023-04-17T05:22:04.054Z,93981.13
2023-04-17T05:23:00.917Z,93846.97
2023-04-17T05:23:57.768Z,93982.63
2023-04-17T05:24:54.578Z,93983.13
2023-04-17T05:25:51.336Z,93984.44
2023-04-17T05:26:48.183Z,93978.16
2023-04-17T05:27:45.014Z,93965.91
2023-04-17T05:28:41.769Z,93981.63
2023-04-17T05:29:38.662Z,93981.41
2023-04-17T05:30:35.468Z,93988.50
2023-04-17T05:31:32.272Z,93982.13
2023-04-17T05:32:31.188Z,93983.34
2023-04-17T05:33:27.999Z,93989.13
2023-04-17T05:34:24.888Z,93973.56
2023-04-17T05:35:21.721Z,93964.59
2023-04-17T05:36:18.535Z,93930.84
2023-04-17T05:37:15.569Z,93978.44
2023-04-17T05:38:12.369Z,93952.97
2023-04-17T05:39:09.171Z,93973.56
2023-04-17T05:40:07.221Z,93888.16
2023-04-17T05:41:04.034Z,93958.47
2023-04-17T05:42:01.575Z,93974.69
2023-04-17T05:42:58.332Z,93953.59
2023-04-17T05:43:55.097Z,93984.06
2023-04-17T05:44:52.027Z,93985.41
2023-04-17T05:45:49.272Z,93959.22
2023-04-17T05:46:46.274Z,93956.72
2023-04-17T05:47:43.161Z,93939.91
2023-04-17T05:48:39.906Z,93962.31
2023-04-17T05:49:36.669Z,93918.91
2023-04-17T05:50:33.521Z,93973.91
2023-04-17T05:51:30.234Z,93946.25
2023-04-17T05:52:27.015Z,93984.25
2023-04-17T05:53:23.947Z,93991.22
2023-04-17T05:54:20.747Z,93977.47
2023-04-17T05:55:20.046Z,93982.03
2023-04-17T05:56:17.027Z,93960.34
2023-04-17T05:57:13.849Z,93993.31
2023-04-17T05:58:22.980Z,93982.66
2023-04-17T05:59:21.162Z,93989.94
2023-04-17T06:00:18.663Z,93977.84
2023-04-17T06:01:18.092Z,93955.69
2023-04-17T06:02:16.295Z,93946.41
2023-04-17T06:03:13.307Z,93952.84
2023-04-17T06:04:10.824Z,93991.00
2023-04-17T06:05:08.678Z,93996.28
2023-04-17T06:06:05.780Z,93998.44
2023-04-17T06:07:06.310Z,93996.16
2023-04-17T06:08:04.017Z,93965.91
2023-04-17T06:09:00.968Z,93999.34
2023-04-17T06:09:58.150Z,94001.00
2023-04-17T06:10:56.219Z,93965.47
2023-04-17T06:11:53.102Z,94000.69
2023-04-17T06:12:49.923Z,94000.63
2023-04-17T06:13:47.552Z,93954.19
2023-04-17T06:14:44.410Z,93999.38
2023-04-17T06:15:41.205Z,93934.34
2023-04-17T06:16:38.019Z,93991.44
2023-04-17T06:17:36.664Z,93997.91
2023-04-17T06:18:33.616Z,93968.94
2023-04-17T06:19:30.471Z,94012.78
2023-04-17T06:20:27.424Z,93979.06
2023-04-17T06:21:24.240Z,93975.06
2023-04-17T06:22:21.089Z,94005.84
2023-04-17T06:23:17.957Z,94014.63
2023-04-17T06:24:14.881Z,94008.31
2023-04-17T06:25:11.707Z,93988.66
2023-04-17T06:26:08.641Z,93981.31
2023-04-17T06:27:05.435Z,93978.66
2023-04-17T06:28:02.350Z,93999.78
2023-04-17T06:28:59.280Z,94018.44
2023-04-17T06:29:56.043Z,93989.81
2023-04-17T06:30:52.793Z,94018.47
2023-04-17T06:31:49.770Z,93939.59
2023-04-17T06:32:46.520Z,93977.38
2023-04-17T06:33:43.720Z,93983.75
2023-04-17T06:34:52.487Z,94020.41
2023-04-17T06:35:56.107Z,94014.09
2023-04-17T06:36:53.528Z,94019.63
2023-04-17T06:37:50.655Z,93972.66
2023-04-17T06:38:47.416Z,94016.09
2023-04-17T06:39:44.271Z,94020.09
2023-04-17T06:40:41.657Z,94020.97
2023-04-17T06:41:38.465Z,94023.19
2023-04-17T06:42:35.798Z,94007.94
2023-04-17T06:43:32.631Z,93996.84
2023-04-17T06:44:29.378Z,94016.81
2023-04-17T06:45:26.221Z,94014.22
2023-04-17T06:46:23.405Z,93958.06
2023-04-17T06:47:20.481Z,93989.72
2023-04-17T06:48:17.271Z,94023.41
2023-04-17T06:49:14.323Z,94020.47
2023-04-17T06:50:11.337Z,94021.22
2023-04-17T06:51:08.087Z,94017.06
2023-04-17T06:52:05.522Z,94023.50
2023-04-17T06:53:02.235Z,93990.56
2023-04-17T06:53:59.381Z,93978.63
2023-04-17T06:54:56.946Z,93977.88
2023-04-17T06:55:54.457Z,94010.81
2023-04-17T06:56:51.307Z,93994.91
2023-04-17T06:57:48.079Z,93994.53
2023-04-17T06:58:45.840Z,94020.91
2023-04-17T06:59:42.604Z,93966.28
2023-04-17T07:00:39.387Z,94017.72
2023-04-17T07:01:38.124Z,94013.97
2023-04-17T07:02:35.049Z,94016.63
2023-04-17T07:03:32.185Z,94018.78
2023-04-17T07:04:30.714Z,94020.91
2023-04-17T07:05:27.552Z,93984.72
2023-04-17T07:06:24.420Z,94018.22
2023-04-17T07:07:21.641Z,94027.81
2023-04-17T07:08:22.328Z,94023.47
2023-04-17T07:09:19.160Z,94025.03
2023-04-17T07:10:16.085Z,94011.88
2023-04-17T07:11:13.026Z,93965.66
2023-04-17T07:12:09.873Z,94017.63
2023-04-17T07:13:07.048Z,94010.25
2023-04-17T07:14:03.839Z,94017.41
2023-04-17T07:15:00.760Z,94021.50
2023-04-17T07:15:58.524Z,94020.09
2023-04-17T07:16:55.697Z,94022.50
2023-04-17T07:17:52.518Z,94011.09
2023-04-17T07:18:52.863Z,94026.69
2023-04-17T07:19:49.659Z,94023.78
2023-04-17T07:20:46.492Z,94017.72
2023-04-17T07:21:43.248Z,94007.03
2023-04-17T07:22:40.103Z,94016.31
2023-04-17T07:23:36.961Z,93938.75
2023-04-17T07:24:36.863Z,93998.13
2023-04-17T07:25:33.656Z,94027.03
2023-04-17T07:26:30.443Z,94025.25
2023-04-17T07:27:27.225Z,94002.41
2023-04-17T07:28:25.139Z,94004.56
2023-04-17T07:29:21.882Z,94037.19
2023-04-17T07:30:18.802Z,94028.34
2023-04-17T07:31:15.675Z,94022.00
2023-04-17T07:32:13.251Z,94032.66
2023-04-17T07:33:10.443Z,94039.31
2023-04-17T07:34:07.296Z,93981.97
2023-04-17T07:35:04.595Z,94034.53
2023-04-17T07:36:01.723Z,94033.19
2023-04-17T07:36:58.443Z,93988.63
2023-04-17T07:37:58.118Z,94029.50
2023-04-17T07:38:54.897Z,94035.13
2023-04-17T07:39:52.821Z,94030.19
2023-04-17T07:40:49.865Z,94012.44
2023-04-17T07:41:46.702Z,94007.94
2023-04-17T07:42:43.573Z,94030.72
2023-04-17T07:43:41.189Z,94025.16
2023-04-17T07:44:41.117Z,94037.38
2023-04-17T07:45:39.198Z,94012.47
2023-04-17T07:46:37.962Z,94030.47
2023-04-17T07:47:34.914Z,93956.75
2023-04-17T07:48:31.667Z,94012.38
2023-04-17T07:49:28.436Z,94017.44
2023-04-17T07:50:25.264Z,94030.50
2023-04-17T07:51:22.046Z,94031.03
2023-04-17T07:52:18.902Z,94031.56
2023-04-17T07:53:15.774Z,94027.53
2023-04-17T07:54:12.568Z,94028.97
2023-04-17T07:55:09.585Z,94028.69
2023-04-17T07:56:06.657Z,94013.25
2023-04-17T07:57:03.565Z,94036.38
2023-04-17T07:58:03.878Z,94009.81
2023-04-17T07:59:00.987Z,94034.69
2023-04-17T07:59:57.761Z,94015.66
2023-04-17T08:00:54.945Z,94026.31
2023-04-17T08:01:52.655Z,94032.66
2023-04-17T08:02:49.766Z,93996.88
2023-04-17T08:03:47.338Z,93988.94
2023-04-17T08:04:44.906Z,94035.59
2023-04-17T08:05:41.947Z,94032.16
2023-04-17T08:06:39.103Z,94035.59
2023-04-17T08:07:36.633Z,94035.34
2023-04-17T08:08:33.740Z,94035.03
2023-04-17T08:09:30.561Z,94032.13
2023-04-17T08:10:28.523Z,94038.25
2023-04-17T08:11:25.482Z,94028.97
2023-04-17T08:12:22.246Z,94046.47
2023-04-17T08:13:19.179Z,94010.16
2023-04-17T08:14:17.419Z,94041.69
2023-04-17T08:15:14.244Z,94045.41
2023-04-17T08:16:11.113Z,94049.31
2023-04-17T08:17:08.988Z,94040.56
2023-04-17T08:18:05.897Z,94021.41
2023-04-17T08:19:02.674Z,94041.44
2023-04-17T08:20:00.729Z,94004.97
2023-04-17T08:20:57.508Z,93943.25
2023-04-17T08:22:04.550Z,94019.28
2023-04-17T08:23:01.466Z,94042.50
2023-04-17T08:23:58.228Z,93993.38
2023-04-17T08:24:59.786Z,94039.56
2023-04-17T08:25:56.552Z,94000.31
2023-04-17T08:26:53.393Z,93994.34
2023-04-17T08:27:50.584Z,94030.81
2023-04-17T08:28:47.494Z,94002.97
2023-04-17T08:29:44.276Z,94035.59
2023-04-17T08:30:41.133Z,93988.94
2023-04-17T08:31:39.884Z,93996.59
2023-04-17T08:32:45.601Z,94030.00
2023-04-17T08:33:42.379Z,94027.09
2023-04-17T08:34:39.126Z,93993.38
2023-04-17T08:35:36.026Z,94026.84
2023-04-17T08:36:33.012Z,94027.88
2023-04-17T08:37:31.016Z,94028.16
2023-04-17T08:38:29.491Z,94029.97
2023-04-17T08:39:27.205Z,94034.25
2023-04-17T08:40:26.196Z,94021.53
2023-04-17T08:41:27.944Z,94029.22
2023-04-17T08:42:25.905Z,94035.31
2023-04-17T08:43:26.180Z,94020.47
2023-04-17T08:44:22.984Z,94032.41
2023-04-17T08:45:22.888Z,93984.97
2023-04-17T08:46:22.769Z,94041.97
2023-04-17T08:47:19.649Z,94047.50
2023-04-17T08:48:16.456Z,94017.28
2023-04-17T08:49:13.640Z,94044.59
2023-04-17T08:50:16.838Z,94034.78
2023-04-17T08:51:15.732Z,94038.94
2023-04-17T08:52:12.476Z,93996.16
2023-04-17T08:53:09.192Z,94050.44
2023-04-17T08:54:06.247Z,94047.41
2023-04-17T08:55:03.383Z,94015.06
2023-04-17T08:56:08.336Z,93952.44
2023-04-17T08:57:06.258Z,94055.34
2023-04-17T08:58:04.674Z,94049.84
2023-04-17T08:59:01.694Z,94031.03
2023-04-17T08:59:58.460Z,94036.38
2023-04-17T09:00:55.991Z,94027.63
2023-04-17T09:02:02.181Z,94050.16
2023-04-17T09:03:02.032Z,94016.16
2023-04-17T09:03:59.008Z,94056.19
2023-04-17T09:04:56.055Z,94067.13
2023-04-17T09:05:57.624Z,94052.84
2023-04-17T09:06:54.636Z,94050.16
2023-04-17T09:08:09.050Z,94041.97
2023-04-17T09:09:06.249Z,94020.91
2023-04-17T09:10:02.960Z,94048.03
2023-04-17T09:10:59.700Z,94058.16
2023-04-17T09:12:10.186Z,94054.94
2023-04-17T09:13:09.128Z,94016.72
2023-04-17T09:14:05.840Z,94054.41
2023-04-17T09:15:16.595Z,94044.59
2023-04-17T09:16:15.829Z,93955.00
2023-04-17T09:17:17.429Z,94047.47
2023-04-17T09:18:32.722Z,94047.75
2023-04-17T09:19:29.522Z,94048.59
2023-04-17T09:20:26.580Z,94038.53
2023-04-17T09:21:29.087Z,94041.94
2023-04-17T09:22:25.851Z,94047.50
2023-04-17T09:23:23.483Z,94031.06
2023-04-17T09:24:34.551Z,94016.16
2023-04-17T09:25:31.545Z,94048.00
2023-04-17T09:26:31.989Z,94035.22
2023-04-17T09:27:29.688Z,94020.41
2023-04-17T09:28:26.497Z,94039.56
2023-04-17T09:29:23.560Z,94016.25
2023-04-17T09:30:20.485Z,94015.69
2023-04-17T09:31:17.291Z,94045.13
2023-04-17T09:32:16.171Z,94014.56
2023-04-17T09:33:13.053Z,94049.09
2023-04-17T09:34:12.586Z,94041.69
2023-04-17T09:35:09.575Z,94013.03
2023-04-17T09:36:22.663Z,94044.88
2023-04-17T09:37:20.978Z,94033.97
2023-04-17T09:38:37.198Z,94032.88
2023-04-17T09:39:34.351Z,94032.66
2023-04-17T09:40:42.254Z,94038.19
2023-04-17T09:41:39.516Z,94022.84
2023-04-17T09:43:00.423Z,94009.28
2023-04-17T09:44:01.995Z,94037.72
2023-04-17T09:45:19.000Z,94042.47
2023-04-17T09:46:47.836Z,94037.97
2023-04-17T09:47:48.021Z,94009.88
2023-04-17T09:48:47.649Z,94044.31
2023-04-17T09:49:50.251Z,94039.28
2023-04-17T09:50:48.253Z,94033.16
2023-04-17T09:51:46.200Z,94011.09
2023-04-17T09:52:43.814Z,94039.91
2023-04-17T09:53:40.879Z,94021.38
2023-04-17T09:54:40.032Z,94030.44
2023-04-17T09:55:38.885Z,94038.91
2023-04-17T09:56:37.813Z,93980.00
2023-04-17T09:57:34.749Z,94054.81
2023-04-17T09:58:32.617Z,94051.88
2023-04-17T09:59:30.984Z,94046.47
2023-04-17T10:00:28.413Z,94055.75
2023-04-17T10:01:26.325Z,94054.06
2023-04-17T10:02:24.020Z,94046.59
2023-04-17T10:03:21.337Z,94041.34
2023-04-17T10:04:19.746Z,94031.56
2023-04-17T10:05:17.672Z,94050.84
2023-04-17T10:06:16.345Z,94025.44
2023-04-17T10:07:14.593Z,93939.41
2023-04-17T10:08:11.556Z,94014.66
2023-04-17T10:09:08.540Z,94045.16
2023-04-17T10:10:09.459Z,94037.28
2023-04-17T10:11:08.668Z,94018.22
2023-04-17T10:12:06.353Z,94030.44
2023-04-17T10:13:08.185Z,94000.97
2023-04-17T10:14:23.908Z,94024.81
2023-04-17T10:15:24.086Z,94023.94
2023-04-17T10:16:36.563Z,94033.56
2023-04-17T10:17:36.787Z,94038.94
2023-04-17T10:18:33.769Z,94036.59
2023-04-17T10:19:36.553Z,94024.94
2023-04-17T10:20:35.504Z,94023.13
2023-04-17T10:21:32.296Z,93999.50
2023-04-17T10:22:29.989Z,94014.84
2023-04-17T10:23:34.871Z,94024.97
2023-04-17T10:24:31.696Z,94034.53
2023-04-17T10:25:29.333Z,93997.66
2023-04-17T10:26:26.113Z,94026.28
2023-04-17T10:27:26.223Z,94030.56
2023-04-17T10:28:49.348Z,94025.78
2023-04-17T10:29:52.166Z,94026.81
2023-04-17T10:30:56.374Z,94022.59
2023-04-17T10:32:11.258Z,94023.38
2023-04-17T10:33:19.953Z,94022.56
2023-04-17T10:34:35.349Z,93989.69
2023-04-17T10:35:35.894Z,94023.63
2023-04-17T10:36:38.386Z,94021.41
2023-04-17T10:38:07.736Z,94024.75
2023-04-17T10:39:15.597Z,94019.25
2023-04-17T10:40:14.859Z,94017.47
2023-04-17T10:41:12.418Z,93966.53
2023-04-17T10:42:21.558Z,93924.59
2023-04-17T10:43:25.337Z,93979.97
2023-04-17T10:44:25.010Z,93997.34
2023-04-17T10:45:21.808Z,93974.81
2023-04-17T10:46:18.603Z,94006.56
2023-04-17T10:47:19.465Z,94007.88
2023-04-17T10:48:26.583Z,94007.81
2023-04-17T10:49:23.564Z,94002.72
2023-04-17T10:50:28.635Z,94002.88
2023-04-17T10:51:28.860Z,94009.09
2023-04-17T10:52:38.062Z,94013.50
2023-04-17T10:54:02.005Z,94006.88
2023-04-17T10:55:10.704Z,94012.78
2023-04-17T10:56:12.056Z,93988.50
2023-04-17T10:57:11.093Z,94018.00
2023-04-17T10:58:13.673Z,93994.66
2023-04-17T10:59:14.884Z,94014.88
2023-04-17T11:00:13.929Z,93927.97
2023-04-17T11:01:11.380Z,93992.75
2023-04-17T11:02:08.380Z,94002.13
2023-04-17T11:03:07.231Z,93998.81
2023-04-17T11:04:05.213Z,93999.09
2023-04-17T11:05:08.319Z,93994.78
2023-04-17T11:06:06.450Z,93923.59
2023-04-17T11:07:03.405Z,93978.34
2023-04-17T11:08:00.221Z,93989.00
2023-04-17T11:08:58.472Z,93972.91
2023-04-17T11:09:55.535Z,93964.16
2023-04-17T11:10:54.252Z,93989.50
2023-04-17T11:11:51.243Z,93975.69
2023-04-17T11:12:49.569Z,93980.88
2023-04-17T11:13:47.761Z,93943.72
2023-04-17T11:14:44.503Z,93956.47
2023-04-17T11:15:41.233Z,93984.22
2023-04-17T11:16:57.166Z,93967.03
2023-04-17T11:17:54.628Z,93997.28
2023-04-17T11:18:52.190Z,93971.16
2023-04-17T11:19:49.825Z,93982.91
2023-04-17T11:20:46.985Z,93966.63
2023-04-17T11:21:47.442Z,93993.13
2023-04-17T11:22:44.895Z,93993.22
2023-04-17T11:23:51.364Z,93991.75
2023-04-17T11:24:51.654Z,93968.97